sensor_id;sensor_type;location;lat;lon;timestamp;pressure;altitude;pressure_sealevel;temperature;humidity
15604;BME280;7902;49.042;9.092;2023-02-13T00:01:51;101089.34;;;7.21;60.05
15604;BME280;7902;49.042;9.092;2023-02-13T00:04:17;101088.50;;;7.20;59.58
15604;BME280;7902;49.042;9.092;2023-02-13T00:06:43;101094.50;;;7.24;59.75
15604;BME280;7902;49.042;9.092;2023-02-13T00:09:12;101084.91;;;7.24;59.46
15604;BME280;7902;49.042;9.092;2023-02-13T00:11:38;101084.03;;;7.24;59.14
15604;BME280;7902;49.042;9.092;2023-02-13T00:14:04;101083.03;;;7.29;59.41
15604;BME280;7902;49.042;9.092;2023-02-13T00:16:30;101077.97;;;7.23;59.15
15604;BME280;7902;49.042;9.092;2023-02-13T00:18:56;101078.06;;;7.20;59.53
15604;BME280;7902;49.042;9.092;2023-02-13T00:21:22;101077.25;;;7.17;59.29
15604;BME280;7902;49.042;9.092;2023-02-13T00:23:48;101080.72;;;7.17;60.04
15604;BME280;7902;49.042;9.092;2023-02-13T00:26:15;101074.63;;;7.18;59.54
15604;BME280;7902;49.042;9.092;2023-02-13T00:28:42;101077.47;;;7.09;59.31
15604;BME280;7902;49.042;9.092;2023-02-13T00:31:10;101080.97;;;7.08;59.95
15604;BME280;7902;49.042;9.092;2023-02-13T00:33:37;101070.75;;;7.00;60.08
15604;BME280;7902;49.042;9.092;2023-02-13T00:36:04;101081.97;;;7.04;60.02
15604;BME280;7902;49.042;9.092;2023-02-13T00:38:30;101078.75;;;6.93;59.48
15604;BME280;7902;49.042;9.092;2023-02-13T00:40:56;101078.63;;;6.99;59.32
15604;BME280;7902;49.042;9.092;2023-02-13T00:43:31;101079.63;;;6.93;60.21
15604;BME280;7902;49.042;9.092;2023-02-13T00:45:58;101073.53;;;6.93;59.93
15604;BME280;7902;49.042;9.092;2023-02-13T00:48:25;101073.63;;;6.90;59.65
15604;BME280;7902;49.042;9.092;2023-02-13T00:50:52;101073.38;;;6.99;60.13
15604;BME280;7902;49.042;9.092;2023-02-13T00:53:21;101079.38;;;7.02;59.45
15604;BME280;7902;49.042;9.092;2023-02-13T00:55:48;101078.34;;;7.10;59.34
15604;BME280;7902;49.042;9.092;2023-02-13T00:58:15;101085.22;;;7.12;60.14
15604;BME280;7902;49.042;9.092;2023-02-13T01:00:41;101086.47;;;7.30;59.83
15604;BME280;7902;49.042;9.092;2023-02-13T01:03:07;101083.81;;;7.31;60.54
15604;BME280;7902;49.042;9.092;2023-02-13T01:05:34;101086.28;;;7.37;60.59
15604;BME280;7902;49.042;9.092;2023-02-13T01:08:00;101076.84;;;7.32;60.46
15604;BME280;7902;49.042;9.092;2023-02-13T01:10:26;101081.16;;;7.34;61.55
15604;BME280;7902;49.042;9.092;2023-02-13T01:12:52;101080.78;;;7.46;61.07
15604;BME280;7902;49.042;9.092;2023-02-13T01:15:19;101084.28;;;7.45;61.16
15604;BME280;7902;49.042;9.092;2023-02-13T01:17:45;101073.97;;;7.41;60.70
15604;BME280;7902;49.042;9.092;2023-02-13T01:20:11;101083.56;;;7.40;60.98
15604;BME280;7902;49.042;9.092;2023-02-13T01:22:38;101082.41;;;7.50;60.93
15604;BME280;7902;49.042;9.092;2023-02-13T01:25:04;101080.88;;;7.43;61.05
15604;BME280;7902;49.042;9.092;2023-02-13T01:27:31;101084.22;;;7.48;61.29
15604;BME280;7902;49.042;9.092;2023-02-13T01:29:57;101084.25;;;7.47;61.72
15604;BME280;7902;49.042;9.092;2023-02-13T01:32:23;101079.09;;;7.44;61.49
15604;BME280;7902;49.042;9.092;2023-02-13T01:34:49;101082.56;;;7.44;61.74
15604;BME280;7902;49.042;9.092;2023-02-13T01:37:15;101077.56;;;7.37;62.11
15604;BME280;7902;49.042;9.092;2023-02-13T01:39:41;101061.94;;;7.35;62.25
15604;BME280;7902;49.042;9.092;2023-02-13T01:42:23;101065.53;;;7.31;62.12
15604;BME280;7902;49.042;9.092;2023-02-13T01:44:53;101072.63;;;7.26;63.14
15604;BME280;7902;49.042;9.092;2023-02-13T01:47:37;101072.84;;;7.20;63.18
15604;BME280;7902;49.042;9.092;2023-02-13T01:52:36;101071.16;;;7.16;63.48
15604;BME280;7902;49.042;9.092;2023-02-13T01:55:03;101066.78;;;7.18;63.04
15604;BME280;7902;49.042;9.092;2023-02-13T01:57:31;101061.44;;;7.21;63.30
15604;BME280;7902;49.042;9.092;2023-02-13T02:00:02;101066.13;;;7.10;63.28
15604;BME280;7902;49.042;9.092;2023-02-13T02:02:33;101069.41;;;7.17;63.75
15604;BME280;7902;49.042;9.092;2023-02-13T02:05:02;101065.94;;;7.16;63.71
15604;BME280;7902;49.042;9.092;2023-02-13T02:07:29;101079.13;;;7.12;63.83
15604;BME280;7902;49.042;9.092;2023-02-13T02:10:06;101070.25;;;7.19;63.17
15604;BME280;7902;49.042;9.092;2023-02-13T02:12:38;101066.66;;;7.23;63.07
15604;BME280;7902;49.042;9.092;2023-02-13T02:15:07;101069.72;;;7.06;63.92
15604;BME280;7902;49.042;9.092;2023-02-13T02:17:33;101061.28;;;6.96;63.71
15604;BME280;7902;49.042;9.092;2023-02-13T02:34:08;101048.09;;;7.01;63.73
15604;BME280;7902;49.042;9.092;2023-02-13T02:45:09;101055.50;;;6.84;63.93
15604;BME280;7902;49.042;9.092;2023-02-13T02:47:47;101055.44;;;6.87;63.74
15604;BME280;7902;49.042;9.092;2023-02-13T02:50:40;101050.13;;;6.90;63.99
15604;BME280;7902;49.042;9.092;2023-02-13T02:53:16;101054.47;;;6.91;64.12
15604;BME280;7902;49.042;9.092;2023-02-13T02:55:51;101052.66;;;6.93;64.42
15604;BME280;7902;49.042;9.092;2023-02-13T02:58:37;101057.00;;;6.92;63.89
15604;BME280;7902;49.042;9.092;2023-02-13T03:01:26;101056.22;;;6.90;64.32
15604;BME280;7902;49.042;9.092;2023-02-13T03:04:36;101057.81;;;6.96;64.33
15604;BME280;7902;49.042;9.092;2023-02-13T03:07:21;101062.19;;;6.94;64.40
15604;BME280;7902;49.042;9.092;2023-02-13T03:09:51;101058.78;;;6.92;64.43
15604;BME280;7902;49.042;9.092;2023-02-13T03:16:00;101066.41;;;6.99;63.56
15604;BME280;7902;49.042;9.092;2023-02-13T03:18:56;101071.66;;;6.98;64.25
15604;BME280;7902;49.042;9.092;2023-02-13T03:21:47;101053.25;;;7.02;63.50
15604;BME280;7902;49.042;9.092;2023-02-13T03:33:26;101068.25;;;6.96;63.91
15604;BME280;7902;49.042;9.092;2023-02-13T03:36:06;101069.94;;;6.97;63.99
15604;BME280;7902;49.042;9.092;2023-02-13T03:38:58;101072.47;;;7.01;63.59
15604;BME280;7902;49.042;9.092;2023-02-13T03:41:53;101076.81;;;7.01;64.43
15604;BME280;7902;49.042;9.092;2023-02-13T03:44:31;101081.34;;;6.94;64.11
15604;BME280;7902;49.042;9.092;2023-02-13T03:47:00;101080.72;;;6.85;64.54
15604;BME280;7902;49.042;9.092;2023-02-13T03:49:35;101088.44;;;6.89;64.50
15604;BME280;7902;49.042;9.092;2023-02-13T03:52:22;101087.56;;;6.89;64.43
15604;BME280;7902;49.042;9.092;2023-02-13T03:55:08;101088.41;;;6.91;64.09
15604;BME280;7902;49.042;9.092;2023-02-13T03:57:58;101092.88;;;6.86;64.06
15604;BME280;7902;49.042;9.092;2023-02-13T04:00:50;101093.69;;;6.88;64.44
15604;BME280;7902;49.042;9.092;2023-02-13T04:05:52;101109.22;;;6.94;63.83
15604;BME280;7902;49.042;9.092;2023-02-13T04:08:19;101104.88;;;6.93;64.73
15604;BME280;7902;49.042;9.092;2023-02-13T04:11:07;101111.97;;;6.88;64.20
15604;BME280;7902;49.042;9.092;2023-02-13T04:13:58;101100.56;;;6.92;64.20
15604;BME280;7902;49.042;9.092;2023-02-13T04:16:32;101101.53;;;6.88;63.99
15604;BME280;7902;49.042;9.092;2023-02-13T04:18:59;101111.97;;;6.88;64.00
15604;BME280;7902;49.042;9.092;2023-02-13T04:21:26;101113.69;;;6.89;64.07
15604;BME280;7902;49.042;9.092;2023-02-13T04:23:52;101113.53;;;6.95;64.33
15604;BME280;7902;49.042;9.092;2023-02-13T04:26:20;101119.75;;;6.91;64.48
15604;BME280;7902;49.042;9.092;2023-02-13T04:28:47;101115.94;;;7.02;64.29
15604;BME280;7902;49.042;9.092;2023-02-13T04:31:13;101113.41;;;7.01;64.56
15604;BME280;7902;49.042;9.092;2023-02-13T04:33:39;101114.41;;;6.95;64.71
15604;BME280;7902;49.042;9.092;2023-02-13T04:36:05;101115.19;;;6.99;63.96
15604;BME280;7902;49.042;9.092;2023-02-13T04:38:31;101116.00;;;7.01;64.37
15604;BME280;7902;49.042;9.092;2023-02-13T04:40:57;101103.97;;;6.95;63.93
15604;BME280;7902;49.042;9.092;2023-02-13T04:43:23;101107.31;;;7.00;64.26
15604;BME280;7902;49.042;9.092;2023-02-13T04:45:50;101111.75;;;6.97;64.18
15604;BME280;7902;49.042;9.092;2023-02-13T04:48:16;101111.59;;;7.03;64.28
15604;BME280;7902;49.042;9.092;2023-02-13T04:50:42;101111.66;;;7.01;63.96
15604;BME280;7902;49.042;9.092;2023-02-13T04:53:08;101109.06;;;7.00;64.36
15604;BME280;7902;49.042;9.092;2023-02-13T04:55:34;101110.66;;;7.05;63.87
15604;BME280;7902;49.042;9.092;2023-02-13T04:58:00;101108.28;;;6.96;64.41
15604;BME280;7902;49.042;9.092;2023-02-13T05:00:27;101104.81;;;6.96;64.57
15604;BME280;7902;49.042;9.092;2023-02-13T05:02:59;101103.22;;;6.90;64.72
15604;BME280;7902;49.042;9.092;2023-02-13T05:05:25;101101.38;;;6.94;64.49
15604;BME280;7902;49.042;9.092;2023-02-13T05:07:51;101095.00;;;7.05;64.33
15604;BME280;7902;49.042;9.092;2023-02-13T05:10:17;101101.28;;;6.97;63.98
15604;BME280;7902;49.042;9.092;2023-02-13T05:12:43;101103.00;;;6.98;64.06
15604;BME280;7902;49.042;9.092;2023-02-13T05:15:09;101100.63;;;6.89;64.45
15604;BME280;7902;49.042;9.092;2023-02-13T05:17:35;101110.19;;;6.90;64.60
15604;BME280;7902;49.042;9.092;2023-02-13T05:20:01;101108.63;;;6.83;64.80
15604;BME280;7902;49.042;9.092;2023-02-13T05:22:26;101110.28;;;6.87;64.46
15604;BME280;7902;49.042;9.092;2023-02-13T05:25:11;101104.75;;;6.97;64.41
15604;BME280;7902;49.042;9.092;2023-02-13T05:27:36;101099.41;;;7.02;63.73
15604;BME280;7902;49.042;9.092;2023-02-13T05:30:03;101098.63;;;7.00;63.80
15604;BME280;7902;49.042;9.092;2023-02-13T05:32:28;101100.34;;;7.01;63.43
15604;BME280;7902;49.042;9.092;2023-02-13T05:34:54;101099.59;;;6.96;63.76
15604;BME280;7902;49.042;9.092;2023-02-13T05:37:20;101104.97;;;6.90;63.71
15604;BME280;7902;49.042;9.092;2023-02-13T05:39:46;101106.97;;;6.80;64.16
15604;BME280;7902;49.042;9.092;2023-02-13T05:42:12;101108.78;;;6.77;64.12
15604;BME280;7902;49.042;9.092;2023-02-13T05:44:38;101113.06;;;6.79;63.93
15604;BME280;7902;49.042;9.092;2023-02-13T05:47:04;101109.59;;;6.79;63.84
15604;BME280;7902;49.042;9.092;2023-02-13T05:49:30;101115.84;;;6.73;63.87
15604;BME280;7902;49.042;9.092;2023-02-13T05:51:56;101116.88;;;6.66;63.76
15604;BME280;7902;49.042;9.092;2023-02-13T05:54:22;101113.25;;;6.73;64.24
15604;BME280;7902;49.042;9.092;2023-02-13T05:56:47;101117.00;;;6.61;64.37
15604;BME280;7902;49.042;9.092;2023-02-13T05:59:13;101107.31;;;6.67;64.30
15604;BME280;7902;49.042;9.092;2023-02-13T06:01:39;101115.22;;;6.64;64.27
15604;BME280;7902;49.042;9.092;2023-02-13T06:04:05;101115.25;;;6.62;63.89
15604;BME280;7902;49.042;9.092;2023-02-13T06:06:31;101113.28;;;6.70;64.24
15604;BME280;7902;49.042;9.092;2023-02-13T06:08:57;101110.19;;;6.54;63.84
15604;BME280;7902;49.042;9.092;2023-02-13T06:11:23;101107.75;;;6.48;64.08
15604;BME280;7902;49.042;9.092;2023-02-13T06:13:49;101108.53;;;6.52;64.20
15604;BME280;7902;49.042;9.092;2023-02-13T06:16:15;101112.09;;;6.48;64.24
15604;BME280;7902;49.042;9.092;2023-02-13T06:18:41;101115.50;;;6.51;64.26
15604;BME280;7902;49.042;9.092;2023-02-13T06:21:07;101120.84;;;6.45;63.99
15604;BME280;7902;49.042;9.092;2023-02-13T06:23:33;101112.03;;;6.51;64.77
15604;BME280;7902;49.042;9.092;2023-02-13T06:26:07;101116.31;;;6.53;64.38
15604;BME280;7902;49.042;9.092;2023-02-13T06:28:34;101114.38;;;6.61;64.19
15604;BME280;7902;49.042;9.092;2023-02-13T06:31:00;101113.72;;;6.53;64.72
15604;BME280;7902;49.042;9.092;2023-02-13T06:33:26;101109.16;;;6.61;64.27
15604;BME280;7902;49.042;9.092;2023-02-13T06:35:52;101116.09;;;6.63;63.95
15604;BME280;7902;49.042;9.092;2023-02-13T06:38:18;101109.31;;;6.55;63.91
15604;BME280;7902;49.042;9.092;2023-02-13T06:40:47;101114.41;;;6.60;63.80
15604;BME280;7902;49.042;9.092;2023-02-13T06:43:14;101127.34;;;6.65;63.53
15604;BME280;7902;49.042;9.092;2023-02-13T06:45:40;101119.69;;;6.58;63.61
15604;BME280;7902;49.042;9.092;2023-02-13T06:48:07;101120.38;;;6.65;63.66
15604;BME280;7902;49.042;9.092;2023-02-13T06:50:33;101124.75;;;6.65;64.26
15604;BME280;7902;49.042;9.092;2023-02-13T06:53:00;101123.06;;;6.64;63.92
15604;BME280;7902;49.042;9.092;2023-02-13T06:55:26;101123.06;;;6.64;63.70
15604;BME280;7902;49.042;9.092;2023-02-13T06:57:52;101117.19;;;6.54;63.80
15604;BME280;7902;49.042;9.092;2023-02-13T07:00:18;101116.25;;;6.56;63.60
15604;BME280;7902;49.042;9.092;2023-02-13T07:02:45;101120.63;;;6.54;63.38
15604;BME280;7902;49.042;9.092;2023-02-13T07:05:12;101128.47;;;6.54;63.92
15604;BME280;7902;49.042;9.092;2023-02-13T07:07:39;101125.41;;;6.37;64.38
15604;BME280;7902;49.042;9.092;2023-02-13T07:10:08;101132.34;;;6.38;64.34
15604;BME280;7902;49.042;9.092;2023-02-13T07:12:34;101135.88;;;6.36;64.02
15604;BME280;7902;49.042;9.092;2023-02-13T07:15:04;101129.84;;;6.34;64.18
15604;BME280;7902;49.042;9.092;2023-02-13T07:17:30;101131.56;;;6.35;64.67
15604;BME280;7902;49.042;9.092;2023-02-13T07:19:56;101137.34;;;6.47;64.10
15604;BME280;7902;49.042;9.092;2023-02-13T07:22:22;101136.38;;;6.51;64.30
15604;BME280;7902;49.042;9.092;2023-02-13T07:24:48;101140.78;;;6.49;64.27
15604;BME280;7902;49.042;9.092;2023-02-13T07:27:14;101136.28;;;6.54;63.74
15604;BME280;7902;49.042;9.092;2023-02-13T07:29:40;101133.53;;;6.62;63.28
15604;BME280;7902;49.042;9.092;2023-02-13T07:32:06;101127.63;;;6.54;63.77
15604;BME280;7902;49.042;9.092;2023-02-13T07:34:33;101134.66;;;6.50;63.77
15604;BME280;7902;49.042;9.092;2023-02-13T07:36:59;101129.31;;;6.55;63.59
15604;BME280;7902;49.042;9.092;2023-02-13T07:39:25;101135.34;;;6.58;63.35
15604;BME280;7902;49.042;9.092;2023-02-13T07:41:51;101132.25;;;6.41;63.34
15604;BME280;7902;49.042;9.092;2023-02-13T07:44:17;101140.16;;;6.38;63.48
15604;BME280;7902;49.042;9.092;2023-02-13T07:46:43;101145.38;;;6.40;63.89
15604;BME280;7902;49.042;9.092;2023-02-13T07:49:09;101147.56;;;6.56;63.40
15604;BME280;7902;49.042;9.092;2023-02-13T07:51:34;101146.81;;;6.51;63.46
15604;BME280;7902;49.042;9.092;2023-02-13T07:54:01;101145.19;;;6.46;63.48
15604;BME280;7902;49.042;9.092;2023-02-13T07:56:27;101154.78;;;6.45;64.16
15604;BME280;7902;49.042;9.092;2023-02-13T07:58:53;101146.00;;;6.49;63.88
15604;BME280;7902;49.042;9.092;2023-02-13T08:01:19;101156.06;;;6.65;63.41
15604;BME280;7902;49.042;9.092;2023-02-13T08:03:49;101153.88;;;6.48;64.06
15604;BME280;7902;49.042;9.092;2023-02-13T08:06:19;101151.03;;;6.57;63.95
15604;BME280;7902;49.042;9.092;2023-02-13T08:08:45;101158.09;;;6.53;63.65
15604;BME280;7902;49.042;9.092;2023-02-13T08:11:28;101154.66;;;6.51;63.29
15604;BME280;7902;49.042;9.092;2023-02-13T08:14:14;101150.31;;;6.50;63.71
15604;BME280;7902;49.042;9.092;2023-02-13T08:16:40;101151.16;;;6.52;63.42
15604;BME280;7902;49.042;9.092;2023-02-13T08:19:06;101145.03;;;6.53;63.99
15604;BME280;7902;49.042;9.092;2023-02-13T08:21:31;101150.78;;;6.68;63.83
15604;BME280;7902;49.042;9.092;2023-02-13T08:23:59;101142.44;;;6.53;63.70
15604;BME280;7902;49.042;9.092;2023-02-13T08:26:25;101142.66;;;6.43;64.22
15604;BME280;7902;49.042;9.092;2023-02-13T08:28:51;101150.41;;;6.46;63.92
15604;BME280;7902;49.042;9.092;2023-02-13T08:31:17;101144.56;;;6.36;63.73
15604;BME280;7902;49.042;9.092;2023-02-13T08:33:43;101147.88;;;6.44;64.17
15604;BME280;7902;49.042;9.092;2023-02-13T08:36:09;101149.63;;;6.42;64.33
15604;BME280;7902;49.042;9.092;2023-02-13T08:38:35;101136.25;;;6.56;63.57
15604;BME280;7902;49.042;9.092;2023-02-13T08:41:01;101145.81;;;6.57;63.68
15604;BME280;7902;49.042;9.092;2023-02-13T08:43:27;101143.00;;;6.65;63.85
15604;BME280;7902;49.042;9.092;2023-02-13T08:45:52;101143.00;;;6.65;63.25
15604;BME280;7902;49.042;9.092;2023-02-13T08:48:18;101149.06;;;6.67;63.99
15604;BME280;7902;49.042;9.092;2023-02-13T08:50:44;101140.19;;;6.74;63.56
15604;BME280;7902;49.042;9.092;2023-02-13T08:53:10;101140.91;;;6.80;63.84
15604;BME280;7902;49.042;9.092;2023-02-13T08:55:36;101137.50;;;6.77;63.85
15604;BME280;7902;49.042;9.092;2023-02-13T08:58:03;101142.53;;;6.84;63.22
15604;BME280;7902;49.042;9.092;2023-02-13T09:00:30;101142.41;;;6.90;63.57
15604;BME280;7902;49.042;9.092;2023-02-13T09:03:03;101144.53;;;7.09;62.67
15604;BME280;7902;49.042;9.092;2023-02-13T09:05:29;101128.75;;;7.13;62.47
15604;BME280;7902;49.042;9.092;2023-02-13T09:07:59;101142.88;;;7.06;62.83
15604;BME280;7902;49.042;9.092;2023-02-13T09:10:25;101140.41;;;7.00;62.92
15604;BME280;7902;49.042;9.092;2023-02-13T09:12:52;101149.25;;;6.94;63.35
15604;BME280;7902;49.042;9.092;2023-02-13T09:15:17;101155.34;;;6.95;63.30
15604;BME280;7902;49.042;9.092;2023-02-13T09:17:43;101143.53;;;7.14;62.86
15604;BME280;7902;49.042;9.092;2023-02-13T09:20:10;101143.41;;;7.19;63.48
15604;BME280;7902;49.042;9.092;2023-02-13T09:22:41;101141.47;;;7.25;63.20
15604;BME280;7902;49.042;9.092;2023-02-13T09:25:08;101140.31;;;7.37;62.60
15604;BME280;7902;49.042;9.092;2023-02-13T09:27:34;101141.91;;;7.42;62.51
15604;BME280;7902;49.042;9.092;2023-02-13T09:30:00;101140.47;;;7.31;62.70
15604;BME280;7902;49.042;9.092;2023-02-13T09:32:26;101152.41;;;7.39;62.77
15604;BME280;7902;49.042;9.092;2023-02-13T09:34:52;101143.94;;;7.31;62.48
15604;BME280;7902;49.042;9.092;2023-02-13T09:37:18;101152.41;;;7.39;62.99
15604;BME280;7902;49.042;9.092;2023-02-13T09:39:44;101151.38;;;7.46;63.34
15604;BME280;7902;49.042;9.092;2023-02-13T09:42:18;101147.44;;;7.63;62.57
15604;BME280;7902;49.042;9.092;2023-02-13T09:44:46;101149.44;;;7.84;62.32
15604;BME280;7902;49.042;9.092;2023-02-13T09:49:55;101148.59;;;7.83;62.11
15604;BME280;7902;49.042;9.092;2023-02-13T09:52:32;101150.75;;;7.68;62.60
15604;BME280;7902;49.042;9.092;2023-02-13T09:55:00;101152.63;;;7.64;62.21
15604;BME280;7902;49.042;9.092;2023-02-13T09:57:33;101154.25;;;7.68;62.58
15604;BME280;7902;49.042;9.092;2023-02-13T10:03:35;101158.47;;;8.03;61.54
15604;BME280;7902;49.042;9.092;2023-02-13T10:08:28;101154.56;;;8.18;61.32
15604;BME280;7902;49.042;9.092;2023-02-13T10:13:53;101148.41;;;8.19;62.58
15604;BME280;7902;49.042;9.092;2023-02-13T10:16:28;101149.22;;;8.21;62.50
15604;BME280;7902;49.042;9.092;2023-02-13T10:19:15;101148.28;;;8.23;61.08
15604;BME280;7902;49.042;9.092;2023-02-13T10:21:58;101149.25;;;8.19;63.59
15604;BME280;7902;49.042;9.092;2023-02-13T10:24:37;101144.66;;;8.27;63.27
15604;BME280;7902;49.042;9.092;2023-02-13T10:27:18;101146.06;;;8.39;62.93
15604;BME280;7902;49.042;9.092;2023-02-13T10:29:58;101143.72;;;8.30;62.60
15604;BME280;7902;49.042;9.092;2023-02-13T10:35:28;101130.16;;;8.45;62.38
15604;BME280;7902;49.042;9.092;2023-02-13T10:37:58;101124.78;;;8.50;62.32
15604;BME280;7902;49.042;9.092;2023-02-13T10:40:31;101128.31;;;8.49;62.48
15604;BME280;7902;49.042;9.092;2023-02-13T10:43:07;101123.13;;;8.47;61.98
15604;BME280;7902;49.042;9.092;2023-02-13T10:46:00;101126.41;;;8.54;60.95
15604;BME280;7902;49.042;9.092;2023-02-13T10:51:36;101109.94;;;8.50;62.68
15604;BME280;7902;49.042;9.092;2023-02-13T11:02:24;101111.09;;;8.68;62.02
15604;BME280;7902;49.042;9.092;2023-02-13T11:04:53;101096.19;;;8.70;61.63
15604;BME280;7902;49.042;9.092;2023-02-13T11:07:23;101091.50;;;8.79;61.73
15604;BME280;7902;49.042;9.092;2023-02-13T11:09:51;101093.31;;;8.77;61.13
15604;BME280;7902;49.042;9.092;2023-02-13T11:12:27;101085.72;;;8.70;61.12
15604;BME280;7902;49.042;9.092;2023-02-13T11:15:02;101087.13;;;8.80;61.18
15604;BME280;7902;49.042;9.092;2023-02-13T11:17:34;101094.88;;;8.83;61.41
15604;BME280;7902;49.042;9.092;2023-02-13T11:22:48;101074.81;;;8.82;59.87
15604;BME280;7902;49.042;9.092;2023-02-13T11:25:25;101085.09;;;8.88;60.31
15604;BME280;7902;49.042;9.092;2023-02-13T11:28:07;101083.09;;;8.95;60.62
15604;BME280;7902;49.042;9.092;2023-02-13T11:30:36;101086.50;;;8.98;60.25
15604;BME280;7902;49.042;9.092;2023-02-13T11:35:45;101075.91;;;9.01;60.36
15604;BME280;7902;49.042;9.092;2023-02-13T11:40:45;101081.47;;;8.92;60.03
15604;BME280;7902;49.042;9.092;2023-02-13T11:43:47;101078.41;;;9.04;59.55
15604;BME280;7902;49.042;9.092;2023-02-13T11:46:24;101080.72;;;9.13;58.51
15604;BME280;7902;49.042;9.092;2023-02-13T11:49:01;101087.78;;;9.11;60.32
15604;BME280;7902;49.042;9.092;2023-02-13T11:51:36;101084.88;;;9.19;60.11
15604;BME280;7902;49.042;9.092;2023-02-13T11:54:04;101079.97;;;9.10;59.09
15604;BME280;7902;49.042;9.092;2023-02-13T11:56:46;101077.78;;;9.22;59.07
15604;BME280;7902;49.042;9.092;2023-02-13T11:59:13;101070.84;;;9.21;58.68
15604;BME280;7902;49.042;9.092;2023-02-13T12:01:39;101074.56;;;9.14;59.87
15604;BME280;7902;49.042;9.092;2023-02-13T12:04:13;101066.16;;;9.30;58.84
15604;BME280;7902;49.042;9.092;2023-02-13T12:07:44;101066.28;;;9.27;57.32
15604;BME280;7902;49.042;9.092;2023-02-13T12:12:53;101060.09;;;9.27;58.62
15604;BME280;7902;49.042;9.092;2023-02-13T12:15:26;101055.69;;;9.30;58.19
15604;BME280;7902;49.042;9.092;2023-02-13T12:18:02;101054.59;;;9.35;58.10
15604;BME280;7902;49.042;9.092;2023-02-13T12:20:36;101049.53;;;9.31;58.27
15604;BME280;7902;49.042;9.092;2023-02-13T12:23:19;101051.84;;;9.38;57.95
15604;BME280;7902;49.042;9.092;2023-02-13T12:39:35;101038.06;;;9.56;57.51
15604;BME280;7902;49.042;9.092;2023-02-13T12:45:34;101035.22;;;9.62;57.12
15604;BME280;7902;49.042;9.092;2023-02-13T12:50:39;101022.66;;;9.70;56.73
15604;BME280;7902;49.042;9.092;2023-02-13T12:58:47;101031.28;;;9.74;56.52
15604;BME280;7902;49.042;9.092;2023-02-13T13:14:57;101020.25;;;9.88;56.70
15604;BME280;7902;49.042;9.092;2023-02-13T13:17:48;101015.50;;;9.97;57.03
15604;BME280;7902;49.042;9.092;2023-02-13T13:20:33;101022.69;;;9.92;56.63
15604;BME280;7902;49.042;9.092;2023-02-13T13:23:07;101009.69;;;9.89;57.74
15604;BME280;7902;49.042;9.092;2023-02-13T13:28:37;101008.16;;;10.05;56.80
15604;BME280;7902;49.042;9.092;2023-02-13T13:31:03;101009.22;;;10.01;56.52
15604;BME280;7902;49.042;9.092;2023-02-13T13:33:32;101010.16;;;9.99;56.72
15604;BME280;7902;49.042;9.092;2023-02-13T13:36:03;101005.22;;;10.13;56.08
15604;BME280;7902;49.042;9.092;2023-02-13T13:41:14;101001.59;;;10.17;57.15
15604;BME280;7902;49.042;9.092;2023-02-13T13:44:09;101004.88;;;10.22;57.25
15604;BME280;7902;49.042;9.092;2023-02-13T13:49:54;101006.34;;;10.29;56.16
15604;BME280;7902;49.042;9.092;2023-02-13T13:54:49;100999.09;;;10.36;55.98
15604;BME280;7902;49.042;9.092;2023-02-13T14:02:43;100997.00;;;10.44;57.06
15604;BME280;7902;49.042;9.092;2023-02-13T14:05:30;101000.00;;;10.55;56.93
15604;BME280;7902;49.042;9.092;2023-02-13T14:08:03;100999.75;;;10.61;56.32
15604;BME280;7902;49.042;9.092;2023-02-13T14:18:00;100973.22;;;10.67;56.37
15604;BME280;7902;49.042;9.092;2023-02-13T14:20:35;100974.84;;;10.70;56.84
15604;BME280;7902;49.042;9.092;2023-02-13T14:25:32;100985.09;;;10.76;55.83
15604;BME280;7902;49.042;9.092;2023-02-13T14:27:58;100980.66;;;10.78;56.65
15604;BME280;7902;49.042;9.092;2023-02-13T14:30:36;100985.16;;;10.74;56.01
15604;BME280;7902;49.042;9.092;2023-02-13T14:33:06;100983.09;;;10.82;55.63
15604;BME280;7902;49.042;9.092;2023-02-13T14:35:36;100982.09;;;10.85;56.09
15604;BME280;7902;49.042;9.092;2023-02-13T14:38:20;100979.59;;;10.82;56.72
15604;BME280;7902;49.042;9.092;2023-02-13T14:40:50;100968.03;;;10.86;55.85
15604;BME280;7902;49.042;9.092;2023-02-13T14:43:32;100973.28;;;10.86;56.03
15604;BME280;7902;49.042;9.092;2023-02-13T14:48:42;100966.06;;;10.91;56.52
15604;BME280;7902;49.042;9.092;2023-02-13T14:51:19;100971.50;;;10.86;55.61
15604;BME280;7902;49.042;9.092;2023-02-13T14:53:57;100973.03;;;10.92;55.96
15604;BME280;7902;49.042;9.092;2023-02-13T14:56:25;100966.91;;;10.91;56.22
15604;BME280;7902;49.042;9.092;2023-02-13T14:58:53;100967.69;;;10.93;55.46
15604;BME280;7902;49.042;9.092;2023-02-13T15:01:27;100960.59;;;10.95;55.91
15604;BME280;7902;49.042;9.092;2023-02-13T15:04:14;100960.53;;;10.97;56.14
15604;BME280;7902;49.042;9.092;2023-02-13T15:06:43;100966.56;;;10.99;55.00
15604;BME280;7902;49.042;9.092;2023-02-13T15:09:34;100961.34;;;10.97;55.86
15604;BME280;7902;49.042;9.092;2023-02-13T15:12:02;100953.22;;;11.04;55.16
15604;BME280;7902;49.042;9.092;2023-02-13T15:14:33;100953.16;;;11.05;55.78
15604;BME280;7902;49.042;9.092;2023-02-13T15:19:33;100954.91;;;11.05;55.77
15604;BME280;7902;49.042;9.092;2023-02-13T15:22:02;100945.16;;;11.07;54.47
15604;BME280;7902;49.042;9.092;2023-02-13T15:24:42;100939.00;;;11.08;54.93
15604;BME280;7902;49.042;9.092;2023-02-13T15:27:18;100947.81;;;11.07;55.81
15604;BME280;7902;49.042;9.092;2023-02-13T15:30:18;100943.34;;;11.09;55.50
15604;BME280;7902;49.042;9.092;2023-02-13T15:32:52;100941.19;;;11.17;54.53
15604;BME280;7902;49.042;9.092;2023-02-13T15:35:22;100940.56;;;11.12;54.90
15604;BME280;7902;49.042;9.092;2023-02-13T15:37:49;100931.00;;;11.11;54.67
15604;BME280;7902;49.042;9.092;2023-02-13T15:42:47;100936.25;;;11.11;54.89
15604;BME280;7902;49.042;9.092;2023-02-13T15:45:15;100925.72;;;11.11;55.80
15604;BME280;7902;49.042;9.092;2023-02-13T15:47:44;100937.00;;;11.13;54.88
15604;BME280;7902;49.042;9.092;2023-02-13T15:50:21;100929.00;;;11.16;54.89
15604;BME280;7902;49.042;9.092;2023-02-13T15:52:49;100933.97;;;11.22;57.83
15604;BME280;7902;49.042;9.092;2023-02-13T15:55:24;100937.94;;;11.30;57.54
15604;BME280;7902;49.042;9.092;2023-02-13T15:57:53;100939.44;;;11.36;58.69
15604;BME280;7902;49.042;9.092;2023-02-13T16:00:27;100940.50;;;11.32;58.76